createdAt,value
2018-12-29T05:00:34.116Z,25.23
2018-12-29T05:02:56.659Z,23.63
2018-12-29T05:05:19.088Z,23.70
2018-12-29T05:07:41.534Z,24.50
2018-12-29T05:10:05.782Z,23.83
2018-12-29T05:12:47.691Z,24.27
2018-12-29T06:00:17.294Z,21.90
2018-12-29T06:02:52.027Z,21.20
2018-12-29T06:05:26.927Z,21.80
2018-12-29T06:08:02.991Z,18.77
2018-12-29T06:10:38.011Z,18.50
2018-12-29T06:13:13.014Z,19.77
2018-12-29T07:01:20.755Z,19.57
2018-12-29T07:03:43.201Z,21.30
2018-12-29T07:06:05.658Z,20.10
2018-12-29T07:08:28.074Z,19.50
2018-12-29T07:11:03.588Z,20.40
2018-12-29T07:13:38.640Z,19.87
2018-12-29T08:01:36.020Z,19.37
2018-12-29T08:03:58.562Z,22.97
2018-12-29T08:06:21.090Z,21.30
2018-12-29T08:08:43.586Z,21.03
2018-12-29T08:11:06.015Z,21.90
2018-12-29T08:13:28.475Z,21.00
2018-12-29T09:01:33.675Z,23.67
2018-12-29T09:03:56.472Z,23.03
2018-12-29T09:06:19.190Z,22.27
2018-12-29T09:08:42.256Z,21.60
2018-12-29T09:11:04.834Z,20.27
2018-12-29T09:13:29.566Z,22.40
2018-12-29T10:02:34.426Z,20.07
2018-12-29T10:04:56.966Z,20.43
2018-12-29T10:07:19.530Z,19.13
2018-12-29T10:09:41.983Z,19.10
2018-12-29T10:12:04.555Z,20.60
2018-12-29T10:14:27.182Z,18.80
2018-12-29T11:00:37.803Z,22.03
2018-12-29T11:03:00.382Z,23.00
2018-12-29T11:05:22.890Z,22.17
2018-12-29T11:07:45.346Z,23.57
2018-12-29T11:10:07.796Z,22.87
2018-12-29T11:12:30.314Z,22.97
2018-12-29T11:14:52.883Z,24.17
2018-12-29T11:43:47.962Z,22.73
2018-12-29T11:46:10.426Z,23.50
2018-12-29T11:48:32.843Z,23.90
2018-12-29T11:50:55.438Z,22.67
2018-12-29T11:53:17.978Z,25.47
2018-12-29T11:55:41.178Z,23.03
2018-12-29T11:58:03.729Z,23.00
2018-12-29T12:00:26.534Z,23.60
2018-12-29T12:02:49.369Z,25.80
2018-12-29T12:05:12.038Z,21.80
2018-12-29T12:07:34.547Z,23.30
2018-12-29T12:09:57.118Z,23.33
2018-12-29T12:12:19.682Z,23.83
2018-12-29T12:14:42.218Z,23.10
2018-12-29T13:02:39.055Z,22.90
2018-12-29T13:05:13.997Z,24.50
2018-12-29T13:07:36.498Z,22.07
2018-12-29T13:10:19.518Z,24.17
2018-12-29T13:12:55.986Z,24.47
2018-12-29T14:01:45.690Z,23.03
2018-12-29T14:04:08.251Z,23.77
2018-12-29T14:06:30.775Z,21.43
2018-12-29T14:09:12.794Z,22.80
2018-12-29T14:11:48.031Z,22.50
2018-12-29T14:14:23.274Z,24.47
2018-12-29T16:02:47.779Z,26.77
2018-12-29T16:05:23.079Z,27.33
2018-12-29T16:07:58.290Z,27.37
2018-12-29T16:10:33.552Z,30.73
2018-12-29T17:00:33.674Z,30.60
2018-12-29T17:02:56.306Z,31.30
2018-12-29T17:05:18.823Z,29.40
2018-12-29T17:07:41.395Z,29.83
2018-12-29T17:10:04.281Z,30.00
2018-12-29T17:12:26.978Z,30.30
2018-12-29T17:14:51.646Z,30.23
2018-12-29T18:13:04.260Z,28.00
2018-12-29T19:02:38.325Z,20.40
2018-12-29T19:05:01.504Z,20.40
2018-12-29T19:07:24.278Z,19.77
2018-12-29T19:10:06.387Z,19.00
2018-12-29T19:12:41.654Z,18.87
2018-12-29T20:02:42.202Z,18.67
2018-12-29T20:05:17.258Z,18.53
2018-12-29T20:07:52.598Z,15.23
2018-12-29T20:10:27.631Z,16.07
2018-12-29T20:13:02.827Z,17.40
2018-12-29T21:02:40.235Z,13.80
2018-12-29T21:05:02.965Z,13.60
2018-12-29T21:07:25.520Z,14.03
2018-12-29T21:09:48.117Z,14.73
2018-12-29T21:12:10.642Z,15.07
2018-12-29T21:14:33.276Z,14.03
